createdAt,value
2022-12-15T00:02:19.483Z,17.53
2022-12-15T00:05:05.844Z,18.40
2022-12-15T00:07:52.089Z,23.13
2022-12-15T00:10:37.350Z,25.40
2022-12-15T00:13:29.826Z,26.53
2022-12-15T00:16:15.988Z,20.17
2022-12-15T00:19:01.517Z,25.77
2022-12-15T00:21:47.820Z,18.10
2022-12-15T00:24:33.032Z,21.97
2022-12-15T00:27:18.565Z,20.37
2022-12-15T00:30:04.195Z,19.30
2022-12-15T00:32:51.828Z,22.03
2022-12-15T00:35:37.126Z,24.20
2022-12-15T00:38:29.514Z,18.63
2022-12-15T00:40:59.724Z,19.90
2022-12-15T00:43:28.262Z,18.93
2022-12-15T00:46:14.559Z,24.57
2022-12-15T00:48:41.964Z,19.57
2022-12-15T00:51:08.867Z,23.97
2022-12-15T00:53:56.579Z,18.80
2022-12-15T00:56:42.158Z,21.33
2022-12-15T00:59:27.666Z,21.17
2022-12-15T01:02:13.320Z,25.50
2022-12-15T01:04:58.767Z,18.10
2022-12-15T01:07:44.119Z,27.33
2022-12-15T01:10:35.037Z,18.60
2022-12-15T01:13:22.260Z,16.90
2022-12-15T01:16:10.383Z,26.43
2022-12-15T01:18:59.014Z,21.07
2022-12-15T01:21:25.896Z,19.20
2022-12-15T01:23:53.432Z,19.83
2022-12-15T01:26:20.670Z,20.87
2022-12-15T01:28:47.579Z,18.60
2022-12-15T01:31:15.030Z,22.47
2022-12-15T01:33:43.810Z,24.50
2022-12-15T01:36:11.997Z,19.27
2022-12-15T01:38:38.880Z,20.87
2022-12-15T01:41:09.480Z,22.93
2022-12-15T01:43:39.194Z,25.17
2022-12-15T01:46:09.168Z,17.03
2022-12-15T01:48:54.547Z,20.90
2022-12-15T01:51:28.876Z,19.80
2022-12-15T01:54:05.902Z,22.43
2022-12-15T01:56:37.989Z,16.60
2022-12-15T01:59:08.950Z,18.80
2022-12-15T02:01:35.955Z,19.73
2022-12-15T02:04:03.193Z,22.23
2022-12-15T02:06:30.252Z,20.50
2022-12-15T02:08:59.490Z,20.87
2022-12-15T02:11:42.942Z,19.67
2022-12-15T02:14:11.880Z,22.17
2022-12-15T02:16:58.451Z,18.63
2022-12-15T02:19:40.866Z,19.00
2022-12-15T02:22:37.759Z,21.63
2022-12-15T02:25:16.755Z,23.57
2022-12-15T02:27:56.776Z,24.60
2022-12-15T02:30:40.360Z,23.70
2022-12-15T02:33:07.183Z,22.43
2022-12-15T02:35:59.807Z,23.67
2022-12-15T02:38:32.714Z,23.63
2022-12-15T02:41:01.194Z,20.13
2022-12-15T02:43:30.539Z,25.43
2022-12-15T02:46:25.884Z,22.83
2022-12-15T02:49:12.394Z,20.63
2022-12-15T02:51:57.455Z,26.10
2022-12-15T02:55:14.895Z,23.97
2022-12-15T02:57:57.183Z,21.03
2022-12-15T03:00:24.297Z,26.97
2022-12-15T03:02:55.756Z,22.10
2022-12-15T03:05:24.793Z,19.87
2022-12-15T03:07:54.084Z,24.50
2022-12-15T03:10:26.261Z,28.20
2022-12-15T03:12:54.629Z,22.10
2022-12-15T03:15:21.651Z,22.20
2022-12-15T03:17:48.810Z,24.57
2022-12-15T03:20:16.104Z,19.13
2022-12-15T03:22:42.904Z,24.87
2022-12-15T03:25:09.682Z,24.07
2022-12-15T03:27:37.884Z,26.07
2022-12-15T03:30:05.670Z,27.57
2022-12-15T03:32:32.412Z,22.97
2022-12-15T03:34:59.248Z,24.40
2022-12-15T03:37:25.973Z,29.70
2022-12-15T03:39:52.754Z,27.13
2022-12-15T03:42:39.685Z,31.53
2022-12-15T03:45:06.893Z,27.33
2022-12-15T03:47:33.609Z,25.10
2022-12-15T03:50:00.396Z,25.17
2022-12-15T03:52:28.300Z,29.30
2022-12-15T03:54:57.374Z,26.50
2022-12-15T03:57:24.180Z,28.10
2022-12-15T03:59:50.903Z,26.40
2022-12-15T04:02:21.146Z,24.97
2022-12-15T04:04:48.924Z,31.70
2022-12-15T04:07:17.908Z,23.57
2022-12-15T04:09:44.882Z,29.63
2022-12-15T04:12:12.133Z,27.97
2022-12-15T04:14:42.646Z,30.70
2022-12-15T04:17:10.470Z,26.30
2022-12-15T04:19:56.231Z,24.73
2022-12-15T04:22:23.605Z,23.57
2022-12-15T04:25:09.351Z,28.17
2022-12-15T04:27:59.854Z,28.03
2022-12-15T04:30:49.065Z,28.67
2022-12-15T04:33:38.843Z,28.03
2022-12-15T04:36:26.350Z,27.53
2022-12-15T04:39:11.766Z,30.27
2022-12-15T04:41:57.491Z,27.67
2022-12-15T04:44:42.840Z,28.53
2022-12-15T04:47:28.575Z,20.77
2022-12-15T04:50:13.915Z,27.57
2022-12-15T04:52:59.586Z,25.73
2022-12-15T04:55:48.321Z,26.13
2022-12-15T04:58:33.783Z,30.13
2022-12-15T05:01:19.473Z,29.40
2022-12-15T05:04:05.043Z,26.23
2022-12-15T05:06:50.598Z,21.83
2022-12-15T05:09:35.764Z,31.63
2022-12-15T05:12:21.108Z,24.47
2022-12-15T05:15:06.698Z,23.63
2022-12-15T05:17:52.452Z,29.47
2022-12-15T05:20:37.884Z,28.50
2022-12-15T05:23:23.042Z,31.37
2022-12-15T05:26:08.579Z,25.33
2022-12-15T05:28:53.817Z,26.20
2022-12-15T05:31:39.254Z,29.77
2022-12-15T05:34:06.992Z,27.73
2022-12-15T05:36:33.889Z,27.20
2022-12-15T05:39:00.739Z,27.87
2022-12-15T05:41:27.447Z,28.83
2022-12-15T05:43:54.285Z,28.43
2022-12-15T05:46:21.318Z,28.70
2022-12-15T05:48:48.030Z,25.73
2022-12-15T05:51:15.143Z,31.87
2022-12-15T05:53:42.768Z,30.67
2022-12-15T05:56:12.279Z,26.50
2022-12-15T05:58:45.198Z,29.57
2022-12-15T06:01:15.585Z,27.40
2022-12-15T06:03:42.891Z,36.73
2022-12-15T06:06:11.239Z,35.43
2022-12-15T06:08:39.958Z,24.63
2022-12-15T06:11:07.106Z,29.20
2022-12-15T06:13:35.217Z,33.10
2022-12-15T06:16:07.544Z,28.50
2022-12-15T06:18:38.159Z,31.33
2022-12-15T06:21:07.902Z,28.33
2022-12-15T06:23:35.566Z,26.47
2022-12-15T06:26:11.068Z,27.67
2022-12-15T06:28:38.221Z,39.07
2022-12-15T06:31:06.953Z,32.20
2022-12-15T06:33:34.445Z,28.73
2022-12-15T06:36:07.052Z,28.37
2022-12-15T06:38:34.746Z,29.70
2022-12-15T06:41:03.587Z,28.03
2022-12-15T06:43:32.118Z,26.30
2022-12-15T06:46:00.088Z,32.07
2022-12-15T06:48:26.972Z,30.17
2022-12-15T06:50:54.463Z,28.37
2022-12-15T06:53:23.099Z,28.63
2022-12-15T06:55:50.376Z,30.77
2022-12-15T06:58:18.175Z,30.00
2022-12-15T07:00:46.526Z,32.37
2022-12-15T07:03:19.086Z,28.93
2022-12-15T07:05:46.767Z,28.50
2022-12-15T07:08:16.189Z,25.63
2022-12-15T07:10:44.310Z,29.60
2022-12-15T07:13:12.387Z,33.20
2022-12-15T07:15:40.499Z,29.70
2022-12-15T07:18:07.733Z,35.43
2022-12-15T07:20:34.475Z,35.03
2022-12-15T07:23:03.791Z,27.03
2022-12-15T07:25:30.499Z,29.20
2022-12-15T07:27:57.190Z,27.53
2022-12-15T07:30:24.100Z,27.77
2022-12-15T07:32:51.639Z,27.27
2022-12-15T07:35:21.894Z,34.37
2022-12-15T07:37:48.938Z,29.83
2022-12-15T07:40:15.668Z,31.93
2022-12-15T07:42:42.521Z,29.20
2022-12-15T07:45:09.710Z,31.60
2022-12-15T07:47:36.786Z,36.30
2022-12-15T07:50:04.955Z,33.50
2022-12-15T07:52:31.664Z,31.43
2022-12-15T07:54:58.552Z,33.87
2022-12-15T07:57:25.266Z,33.50
2022-12-15T07:59:52.107Z,33.23
2022-12-15T08:02:19.333Z,31.33
2022-12-15T08:04:46.250Z,38.47
2022-12-15T08:07:13.659Z,36.53
2022-12-15T08:09:45.495Z,33.10
2022-12-15T08:12:12.467Z,34.77
2022-12-15T08:14:39.788Z,29.10
2022-12-15T08:17:06.773Z,35.40
2022-12-15T08:19:33.476Z,33.83
2022-12-15T08:22:00.297Z,31.60
2022-12-15T08:24:27.047Z,31.37
2022-12-15T08:26:53.727Z,41.87
2022-12-15T08:32:10.072Z,30.33
2022-12-15T08:34:37.942Z,37.53
2022-12-15T08:37:07.118Z,33.43
2022-12-15T08:39:33.903Z,38.33
2022-12-15T08:42:00.658Z,36.57
2022-12-15T08:44:27.319Z,35.07
2022-12-15T08:46:54.059Z,39.17
2022-12-15T08:49:22.289Z,36.37
2022-12-15T08:51:50.770Z,44.13
2022-12-15T08:54:19.144Z,34.53
2022-12-15T08:56:48.865Z,39.77
2022-12-15T08:59:15.847Z,40.20
2022-12-15T09:01:43.561Z,36.40
2022-12-15T09:04:13.431Z,41.20
2022-12-15T09:06:40.218Z,37.23
2022-12-15T09:09:08.758Z,39.73
2022-12-15T09:11:35.658Z,35.07
2022-12-15T09:14:03.391Z,37.90
2022-12-15T09:16:32.873Z,42.10
2022-12-15T09:19:00.627Z,43.27
2022-12-15T09:21:29.314Z,44.03
2022-12-15T09:24:00.643Z,46.03
2022-12-15T09:26:29.746Z,41.30
2022-12-15T09:28:56.858Z,42.07
2022-12-15T09:31:29.784Z,48.07
2022-12-15T09:34:00.758Z,43.57
2022-12-15T09:36:33.001Z,43.10
2022-12-15T09:39:02.026Z,40.93
2022-12-15T09:41:34.608Z,42.63
2022-12-15T09:44:14.417Z,41.80
2022-12-15T09:47:12.089Z,45.47
2022-12-15T09:50:01.592Z,39.63
2022-12-15T09:52:31.216Z,39.37
2022-12-15T09:54:59.437Z,41.67
2022-12-15T09:57:36.298Z,37.63
2022-12-15T10:00:22.021Z,47.60
2022-12-15T10:03:02.400Z,40.33
2022-12-15T10:06:06.195Z,42.17
2022-12-15T10:08:30.396Z,39.07
2022-12-15T10:11:26.651Z,41.57
2022-12-15T10:14:24.104Z,39.40
2022-12-15T10:17:16.894Z,37.13
2022-12-15T10:19:55.355Z,39.67
2022-12-15T10:22:27.889Z,41.37
2022-12-15T10:25:11.507Z,38.07
2022-12-15T10:28:16.818Z,34.70
2022-12-15T10:31:00.233Z,39.83
2022-12-15T10:33:34.631Z,36.73
2022-12-15T10:36:02.095Z,36.40
2022-12-15T10:38:43.659Z,37.67
2022-12-15T10:41:16.910Z,36.03
2022-12-15T10:43:46.869Z,37.03
2022-12-15T10:46:20.715Z,33.07
2022-12-15T10:49:13.061Z,38.23
2022-12-15T10:51:55.734Z,37.70
2022-12-15T10:54:24.309Z,38.10
2022-12-15T10:57:00.929Z,37.77
2022-12-15T10:59:38.471Z,35.07
2022-12-15T11:02:25.368Z,39.53
2022-12-15T11:05:19.125Z,39.23
2022-12-15T11:07:46.156Z,39.73
2022-12-15T11:10:25.265Z,42.63
2022-12-15T11:13:13.576Z,37.23
2022-12-15T11:15:42.627Z,36.33
2022-12-15T11:18:43.865Z,36.57
2022-12-15T11:21:27.649Z,40.47
2022-12-15T11:24:32.901Z,36.30
2022-12-15T11:27:29.303Z,37.33
2022-12-15T11:30:11.897Z,37.10
2022-12-15T11:32:42.971Z,34.03
2022-12-15T11:35:14.852Z,32.00
2022-12-15T11:37:44.653Z,36.33
2022-12-15T11:40:26.415Z,34.53
2022-12-15T11:42:53.168Z,33.77
2022-12-15T11:45:34.986Z,35.20
2022-12-15T11:48:09.915Z,31.20
2022-12-15T11:51:13.623Z,35.07
2022-12-15T11:54:07.632Z,32.90
2022-12-15T11:56:45.383Z,35.10
2022-12-15T11:59:27.148Z,39.23
2022-12-15T12:02:27.732Z,32.77
2022-12-15T12:05:15.512Z,31.47
2022-12-15T12:08:04.017Z,36.97
2022-12-15T12:10:52.313Z,37.70
2022-12-15T12:14:02.594Z,34.60
2022-12-15T12:17:18.581Z,34.70
2022-12-15T12:19:51.247Z,32.67
2022-12-15T12:22:40.440Z,27.67
2022-12-15T12:25:13.813Z,34.57
2022-12-15T12:28:02.116Z,34.43
2022-12-15T12:30:43.342Z,36.77
2022-12-15T12:33:30.602Z,32.07
2022-12-15T12:36:07.200Z,31.03
2022-12-15T12:38:39.112Z,32.63
2022-12-15T12:41:36.386Z,30.53
2022-12-15T12:44:32.113Z,34.17
2022-12-15T12:47:07.319Z,30.77
2022-12-15T12:49:41.716Z,30.50
2022-12-15T12:52:43.234Z,33.70
2022-12-15T12:55:14.514Z,31.73
2022-12-15T12:57:43.249Z,32.37
2022-12-15T13:00:19.711Z,32.53
2022-12-15T13:02:48.456Z,33.03
2022-12-15T13:05:37.814Z,31.00
2022-12-15T13:08:10.874Z,30.77
2022-12-15T13:10:47.228Z,33.50
2022-12-15T13:13:32.564Z,29.47
2022-12-15T13:16:09.798Z,27.90
2022-12-15T13:19:04.309Z,29.27
2022-12-15T13:21:53.126Z,31.70
2022-12-15T13:24:33.920Z,28.00
2022-12-15T13:27:04.642Z,29.73
2022-12-15T13:29:35.606Z,28.57
2022-12-15T13:32:04.043Z,28.80
2022-12-15T13:34:38.977Z,31.57
2022-12-15T13:37:26.717Z,31.90
2022-12-15T13:39:57.046Z,32.60
2022-12-15T13:42:41.610Z,34.23
2022-12-15T13:45:24.547Z,33.23
2022-12-15T13:47:54.800Z,37.23
2022-12-15T13:50:36.313Z,34.47
2022-12-15T13:53:20.095Z,42.97
2022-12-15T13:56:42.309Z,33.07
2022-12-15T13:59:30.588Z,32.27
2022-12-15T14:01:57.833Z,31.67
2022-12-15T14:04:26.452Z,31.87
2022-12-15T14:07:00.816Z,32.10
2022-12-15T14:09:32.580Z,31.17
2022-12-15T14:12:01.269Z,36.03
2022-12-15T14:14:34.876Z,34.30
2022-12-15T14:17:06.063Z,31.63
2022-12-15T14:19:46.524Z,32.33
2022-12-15T14:22:28.673Z,32.90
2022-12-15T14:25:02.287Z,32.30
2022-12-15T14:27:31.318Z,36.30
2022-12-15T14:30:19.742Z,32.47
2022-12-15T14:32:54.503Z,31.00
2022-12-15T14:35:28.965Z,30.73
2022-12-15T14:37:59.128Z,31.60
2022-12-15T14:40:29.115Z,37.23
2022-12-15T14:42:56.397Z,34.57
2022-12-15T14:45:28.499Z,31.67
2022-12-15T14:48:39.537Z,32.70
2022-12-15T14:50:47.742Z,32.27
2022-12-15T14:53:17.552Z,35.23
2022-12-15T14:55:44.483Z,29.90
2022-12-15T14:58:34.825Z,32.50
2022-12-15T15:01:03.419Z,34.30
2022-12-15T15:03:39.831Z,32.67
2022-12-15T15:06:12.425Z,34.87
2022-12-15T15:08:46.447Z,39.03
2022-12-15T15:11:33.887Z,37.40
2022-12-15T15:14:05.815Z,35.10
2022-12-15T15:16:32.575Z,38.37
2022-12-15T15:19:02.467Z,34.50
2022-12-15T15:21:34.165Z,34.67
2022-12-15T15:24:02.132Z,36.37
2022-12-15T15:26:29.756Z,39.27
2022-12-15T15:28:56.933Z,38.20
2022-12-15T15:31:52.645Z,36.70
2022-12-15T15:34:19.482Z,43.93
2022-12-15T15:36:46.610Z,37.23
2022-12-15T15:39:15.741Z,37.83
2022-12-15T15:41:42.661Z,38.83
2022-12-15T15:44:14.687Z,38.03
2022-12-15T15:46:59.943Z,37.93
2022-12-15T15:49:27.360Z,37.87
2022-12-15T15:51:56.133Z,36.80
2022-12-15T15:54:25.119Z,42.47
2022-12-15T15:56:51.941Z,42.73
2022-12-15T15:59:21.156Z,41.60
2022-12-15T16:01:54.245Z,38.33
2022-12-15T16:04:21.711Z,41.00
2022-12-15T16:06:50.111Z,38.23
2022-12-15T16:09:17.144Z,40.17
2022-12-15T16:11:46.384Z,39.40
2022-12-15T16:14:15.717Z,43.50
2022-12-15T16:16:42.888Z,39.83
2022-12-15T16:19:11.999Z,45.57
2022-12-15T16:21:39.960Z,38.73
2022-12-15T16:24:13.683Z,42.83
2022-12-15T16:26:50.073Z,44.63
2022-12-15T16:29:20.238Z,38.10
2022-12-15T16:31:47.694Z,45.53
2022-12-15T16:34:20.499Z,50.17
2022-12-15T16:36:47.371Z,40.93
2022-12-15T16:39:26.151Z,48.20
2022-12-15T16:41:54.545Z,38.63
2022-12-15T16:44:22.278Z,42.30
2022-12-15T16:46:49.218Z,38.13
2022-12-15T16:49:19.372Z,44.07
2022-12-15T16:51:48.568Z,43.47
2022-12-15T16:54:27.242Z,44.10
2022-12-15T16:56:55.969Z,43.77
2022-12-15T16:59:34.965Z,44.33
2022-12-15T17:02:17.141Z,46.00
2022-12-15T17:04:43.957Z,43.57
2022-12-15T17:07:19.710Z,42.70
2022-12-15T17:09:47.507Z,40.23
2022-12-15T17:12:17.545Z,40.47
2022-12-15T17:14:45.015Z,43.00
2022-12-15T17:17:16.304Z,45.77
2022-12-15T17:19:58.009Z,50.73
2022-12-15T17:22:30.355Z,44.70
2022-12-15T17:24:57.132Z,47.20
2022-12-15T17:27:29.489Z,42.97
2022-12-15T17:29:59.567Z,46.70
2022-12-15T17:32:26.784Z,44.50
2022-12-15T17:34:53.472Z,47.07
2022-12-15T17:37:20.268Z,49.30
2022-12-15T17:39:51.376Z,43.03
2022-12-15T17:42:19.735Z,44.67
2022-12-15T17:44:47.793Z,46.07
2022-12-15T17:47:16.435Z,46.97
2022-12-15T17:49:43.780Z,50.97
2022-12-15T17:52:30.298Z,47.03
2022-12-15T17:54:59.633Z,45.17
2022-12-15T17:57:26.608Z,50.73
2022-12-15T18:00:01.136Z,45.80
2022-12-15T18:02:28.454Z,47.10
2022-12-15T18:04:55.366Z,43.07
2022-12-15T18:07:23.503Z,51.57
2022-12-15T18:09:51.982Z,47.30
2022-12-15T18:12:24.344Z,43.97
2022-12-15T18:14:52.002Z,51.30
2022-12-15T18:17:19.354Z,49.70
2022-12-15T18:19:46.619Z,48.47
2022-12-15T18:22:17.325Z,57.40
2022-12-15T18:24:44.161Z,50.97
2022-12-15T18:27:28.099Z,59.53
2022-12-15T18:29:56.557Z,52.97
2022-12-15T18:32:26.971Z,59.13
2022-12-15T18:34:55.113Z,55.37
2022-12-15T18:37:25.016Z,58.43
2022-12-15T18:39:52.231Z,56.53
2022-12-15T18:42:21.317Z,54.33
2022-12-15T18:44:50.619Z,62.37
2022-12-15T18:47:22.821Z,60.60
2022-12-15T18:49:49.797Z,56.20
2022-12-15T18:52:16.611Z,60.90
2022-12-15T18:54:43.738Z,60.83
2022-12-15T18:57:35.938Z,61.37
2022-12-15T19:00:15.062Z,58.07
2022-12-15T19:02:42.653Z,55.93
2022-12-15T19:05:27.667Z,56.70
2022-12-15T19:08:18.304Z,59.90
2022-12-15T19:10:52.641Z,55.87
2022-12-15T19:13:27.779Z,53.53
2022-12-15T19:15:54.759Z,56.03
2022-12-15T19:18:41.875Z,58.43
2022-12-15T19:21:44.560Z,53.23
2022-12-15T19:24:50.544Z,57.20
2022-12-15T19:27:20.867Z,55.47
2022-12-15T19:29:50.287Z,56.53
2022-12-15T19:32:17.089Z,48.73
2022-12-15T19:34:44.781Z,52.40
2022-12-15T19:37:19.105Z,58.70
2022-12-15T19:39:53.466Z,53.60
2022-12-15T19:42:24.431Z,51.90
2022-12-15T19:44:52.184Z,53.63
2022-12-15T19:47:19.095Z,55.37
2022-12-15T19:49:45.962Z,55.17
2022-12-15T19:52:17.366Z,49.63
2022-12-15T19:54:46.689Z,54.13
2022-12-15T19:57:18.573Z,51.83
2022-12-15T19:59:46.136Z,48.97
2022-12-15T20:02:20.876Z,54.07
2022-12-15T20:04:48.687Z,50.47
2022-12-15T20:07:30.751Z,47.17
2022-12-15T20:10:00.222Z,55.80
2022-12-15T20:12:27.384Z,49.87
2022-12-15T20:14:54.130Z,50.50
2022-12-15T20:17:20.814Z,48.43
2022-12-15T20:19:47.570Z,52.20
2022-12-15T20:22:16.994Z,50.43
2022-12-15T20:24:45.367Z,46.83
2022-12-15T20:27:17.184Z,49.13
2022-12-15T20:29:44.881Z,46.30
2022-12-15T20:32:17.432Z,51.67
2022-12-15T20:34:44.700Z,46.93
2022-12-15T20:37:18.435Z,49.73
2022-12-15T20:39:45.341Z,49.67
2022-12-15T20:42:15.207Z,54.17
2022-12-15T20:44:41.983Z,47.97
2022-12-15T20:47:20.616Z,50.30
2022-12-15T20:49:48.467Z,47.47
2022-12-15T20:52:24.822Z,48.23
2022-12-15T20:54:53.031Z,48.30
2022-12-15T20:57:20.330Z,48.00
2022-12-15T20:59:47.157Z,47.83
2022-12-15T21:02:23.812Z,51.67
2022-12-15T21:04:51.609Z,47.83
2022-12-15T21:07:18.843Z,48.03
2022-12-15T21:09:45.619Z,45.23
2022-12-15T21:12:20.881Z,45.40
2022-12-15T21:14:48.968Z,44.20
2022-12-15T21:17:17.568Z,48.00
2022-12-15T21:19:44.962Z,51.73
2022-12-15T21:22:28.342Z,45.73
2022-12-15T21:25:02.065Z,44.17
2022-12-15T21:27:29.020Z,47.13
2022-12-15T21:29:56.269Z,51.27
2022-12-15T21:32:22.986Z,44.47
2022-12-15T21:34:50.021Z,41.00
2022-12-15T21:37:30.172Z,45.87
2022-12-15T21:39:57.820Z,46.83
2022-12-15T21:42:25.532Z,50.00
2022-12-15T21:44:55.283Z,49.97
2022-12-15T21:47:23.954Z,51.70
2022-12-15T21:49:51.422Z,46.23
2022-12-15T21:52:20.307Z,50.77
2022-12-15T21:54:47.092Z,51.70
2022-12-15T21:57:13.949Z,48.97
2022-12-15T21:59:40.809Z,50.97
2022-12-15T22:02:26.935Z,46.57
2022-12-15T22:04:56.290Z,44.37
2022-12-15T22:07:23.042Z,47.00
2022-12-15T22:09:49.991Z,50.33
2022-12-15T22:12:22.407Z,43.63
2022-12-15T22:14:51.724Z,46.87
2022-12-15T22:17:22.606Z,49.87
2022-12-15T22:19:52.344Z,52.03
2022-12-15T22:22:19.210Z,48.40
2022-12-15T22:24:46.135Z,51.47
2022-12-15T22:27:21.751Z,45.23
2022-12-15T22:29:51.959Z,48.53
2022-12-15T22:32:18.689Z,52.40
2022-12-15T22:34:48.507Z,51.87
2022-12-15T22:37:16.947Z,51.57
2022-12-15T22:39:43.674Z,55.60
2022-12-15T22:42:18.162Z,54.97
2022-12-15T22:44:45.481Z,52.00
2022-12-15T22:47:12.346Z,54.27
2022-12-15T22:49:40.620Z,52.43
2022-12-15T22:52:19.027Z,51.50
2022-12-15T22:54:48.337Z,47.60
2022-12-15T22:57:23.022Z,49.93
2022-12-15T23:00:08.771Z,53.40
2022-12-15T23:02:39.588Z,52.17
2022-12-15T23:05:07.513Z,56.37
2022-12-15T23:07:38.150Z,54.93
2022-12-15T23:10:24.402Z,58.33
2022-12-15T23:12:54.381Z,54.47
2022-12-15T23:15:45.354Z,52.33
2022-12-15T23:18:12.318Z,53.67
2022-12-15T23:20:39.162Z,48.07
2022-12-15T23:23:06.389Z,52.60
2022-12-15T23:25:33.347Z,46.93
2022-12-15T23:28:00.133Z,54.40
2022-12-15T23:30:29.809Z,56.93
2022-12-15T23:32:56.545Z,54.07
2022-12-15T23:35:23.527Z,56.60
2022-12-15T23:37:50.988Z,54.77
2022-12-15T23:40:22.336Z,51.03
2022-12-15T23:42:59.663Z,54.17
2022-12-15T23:45:26.502Z,48.20
2022-12-15T23:47:53.330Z,47.23
2022-12-15T23:50:20.871Z,51.83
2022-12-15T23:52:51.302Z,51.50
2022-12-15T23:55:19.166Z,56.23
2022-12-15T23:57:46.437Z,57.67
